Time;durP1;ratioP1;P1;durP2;ratioP2;P2;SDS_P1;SDS_P2;PMS_P1;PMS_P2;Temp;Humidity;BMP_temperature;BMP_pressure;BME280_temperature;BME280_humidity;BME280_pressure;Samples;Min_cycle;Max_cycle;Signal;HPM_P1;HPM_P2
2023/03/03 00:01:31;;;;;;;273.10;44.50;;;2.30;99.90;;;;;;5049334;28;20051;-64
2023/03/03 00:03:58;;;;;;;191.00;37.13;;;2.40;99.90;;;;;;5050991;28;20639;-65
2023/03/03 00:06:24;;;;;;;253.98;43.33;;;2.40;99.90;;;;;;5049850;28;20061;-65
2023/03/03 00:08:50;;;;;;;246.88;40.47;;;2.40;99.90;;;;;;5048815;28;20140;-65
2023/03/03 00:11:16;;;;;;;269.00;43.08;;;2.40;99.90;;;;;;5050975;28;20048;-65
2023/03/03 00:13:46;;;;;;;243.88;41.60;;;2.30;99.90;;;;;;5050185;28;20071;-64
2023/03/03 00:16:22;;;;;;;236.02;39.97;;;2.30;99.90;;;;;;5050753;28;20143;-64
2023/03/03 00:18:48;;;;;;;122.03;28.38;;;2.30;99.90;;;;;;5050709;28;20114;-64
2023/03/03 00:21:24;;;;;;;164.73;32.33;;;2.30;99.90;;;;;;5049834;28;20057;-65
2023/03/03 00:23:51;;;;;;;377.02;52.50;;;2.30;99.90;;;;;;5050520;28;20045;-65
2023/03/03 00:26:22;;;;;;;169.30;31.30;;;2.30;99.90;;;;;;5050224;28;20073;-65
2023/03/03 00:28:51;;;;;;;137.48;28.58;;;2.30;99.90;;;;;;5049577;28;20037;-65
2023/03/03 00:31:20;;;;;;;300.50;44.08;;;2.30;99.90;;;;;;5049380;28;20123;-64
2023/03/03 00:33:53;;;;;;;345.95;51.22;;;2.30;99.90;;;;;;5049197;28;20120;-64
2023/03/03 00:36:55;;;;;;;206.70;37.63;;;2.30;99.90;;;;;;5050128;28;20036;-64
2023/03/03 00:39:36;;;;;;;240.00;37.13;;;2.30;99.90;;;;;;5028243;28;20460;-64
2023/03/03 00:42:09;;;;;;;207.48;33.83;;;2.30;99.90;;;;;;5048385;28;20075;-64
2023/03/03 00:44:47;;;;;;;306.95;45.28;;;2.30;99.90;;;;;;5050348;28;20052;-64
2023/03/03 00:47:34;;;;;;;381.35;50.35;;;2.30;99.90;;;;;;5050400;28;20379;-65
2023/03/03 00:50:06;;;;;;;310.70;41.90;;;2.20;99.90;;;;;;5049597;28;20035;-64
2023/03/03 00:52:44;;;;;;;295.80;44.72;;;2.20;99.90;;;;;;5048493;28;20040;-64
2023/03/03 00:55:10;;;;;;;309.25;43.28;;;2.20;99.90;;;;;;5050162;28;20456;-64
2023/03/03 00:57:36;;;;;;;319.85;48.13;;;2.20;99.90;;;;;;5048512;28;20370;-64
2023/03/03 01:00:03;;;;;;;213.38;32.45;;;2.20;99.90;;;;;;5048860;28;20083;-64
2023/03/03 01:02:29;;;;;;;318.10;42.50;;;2.20;99.90;;;;;;5032065;28;20243;-64
2023/03/03 01:04:55;;;;;;;307.65;43.20;;;2.20;99.90;;;;;;5048093;28;20123;-64
2023/03/03 01:07:21;;;;;;;300.67;45.58;;;2.20;99.90;;;;;;5048682;28;20128;-64
2023/03/03 01:09:47;;;;;;;284.15;39.53;;;2.20;99.90;;;;;;5048165;28;20049;-64
2023/03/03 01:12:13;;;;;;;284.58;39.95;;;2.20;99.90;;;;;;5048755;28;20041;-64
2023/03/03 01:14:39;;;;;;;463.33;56.90;;;2.20;99.90;;;;;;5032050;28;20033;-64
2023/03/03 01:17:05;;;;;;;359.60;44.08;;;2.20;99.90;;;;;;5049417;28;20117;-64
2023/03/03 01:19:32;;;;;;;299.42;43.72;;;2.20;99.90;;;;;;5049917;28;20045;-64
2023/03/03 01:21:58;;;;;;;441.30;55.95;;;2.20;99.90;;;;;;5049685;28;20516;-65
2023/03/03 01:24:24;;;;;;;403.48;51.05;;;2.30;99.90;;;;;;5047989;28;20045;-64
2023/03/03 01:26:49;;;;;;;283.73;40.58;;;2.20;99.90;;;;;;5048556;28;20045;-64
2023/03/03 01:29:15;;;;;;;147.60;28.95;;;2.20;99.90;;;;;;5048520;28;20045;-64
2023/03/03 01:31:41;;;;;;;226.95;35.85;;;2.20;99.90;;;;;;5047964;28;20033;-64
2023/03/03 01:34:07;;;;;;;116.50;24.80;;;2.20;99.90;;;;;;5048438;28;20080;-64
2023/03/03 01:36:33;;;;;;;264.02;39.42;;;2.20;99.90;;;;;;5048170;28;20041;-64
2023/03/03 01:39:00;;;;;;;286.95;44.08;;;2.20;99.90;;;;;;5047930;28;20485;-65
2023/03/03 01:41:32;;;;;;;174.27;27.65;;;2.20;99.90;;;;;;5050034;28;20115;-64
2023/03/03 01:43:58;;;;;;;378.05;47.08;;;2.20;99.90;;;;;;5048700;28;20044;-64
2023/03/03 01:46:24;;;;;;;269.02;38.17;;;2.20;99.90;;;;;;5047876;28;20056;-64
2023/03/03 01:49:01;;;;;;;279.33;40.65;;;2.20;99.90;;;;;;5049647;28;20045;-64
2023/03/03 01:51:37;;;;;;;332.73;45.15;;;2.20;99.90;;;;;;5048410;28;20044;-64
2023/03/03 01:54:15;;;;;;;369.45;45.80;;;2.10;99.90;;;;;;5047975;28;20036;-64
2023/03/03 01:56:42;;;;;;;440.42;52.17;;;2.10;99.90;;;;;;5049763;28;20037;-64
2023/03/03 01:59:15;;;;;;;331.58;42.33;;;2.10;99.90;;;;;;5048994;28;20049;-64
2023/03/03 02:01:41;;;;;;;316.00;39.50;;;2.10;99.90;;;;;;5049521;28;20396;-64
2023/03/03 02:04:08;;;;;;;355.70;49.40;;;2.10;99.90;;;;;;5050837;28;20056;-65
2023/03/03 02:06:39;;;;;;;315.88;39.85;;;2.10;99.90;;;;;;5052516;28;20053;-64
2023/03/03 02:09:32;;;;;;;345.60;43.75;;;2.10;99.90;;;;;;5051647;28;20053;-64
2023/03/03 02:12:00;;;;;;;207.75;30.40;;;2.10;99.90;;;;;;5051579;28;20040;-65
2023/03/03 02:14:27;;;;;;;204.70;32.90;;;2.10;99.90;;;;;;5051069;28;20043;-64
2023/03/03 02:16:53;;;;;;;232.38;36.60;;;2.10;99.90;;;;;;5053215;28;20036;-65
2023/03/03 02:19:27;;;;;;;320.92;38.00;;;2.10;99.90;;;;;;5051914;28;20037;-64
2023/03/03 02:21:53;;;;;;;284.65;36.72;;;2.00;99.90;;;;;;5050771;28;20990;-65
2023/03/03 02:24:29;;;;;;;239.63;31.90;;;2.00;99.90;;;;;;5052731;28;20049;-65
2023/03/03 02:26:55;;;;;;;130.15;19.55;;;1.90;99.90;;;;;;5034183;28;20049;-64
2023/03/03 02:29:21;;;;;;;218.52;29.05;;;1.90;99.90;;;;;;5051254;28;20036;-64
2023/03/03 02:31:46;;;;;;;189.50;23.75;;;1.90;99.90;;;;;;5051523;28;20115;-64
2023/03/03 02:34:12;;;;;;;192.90;27.33;;;1.80;99.90;;;;;;5051978;28;20451;-64
2023/03/03 02:36:38;;;;;;;266.63;33.15;;;1.80;99.90;;;;;;5051161;28;20048;-64
2023/03/03 02:39:18;;;;;;;199.43;24.73;;;1.80;99.90;;;;;;5052401;28;20634;-65
2023/03/03 02:42:01;;;;;;;185.18;18.60;;;1.80;99.90;;;;;;5051628;28;20501;-65
2023/03/03 02:44:29;;;;;;;356.38;37.70;;;1.70;99.90;;;;;;5050789;28;20102;-65
2023/03/03 02:46:56;;;;;;;201.02;27.00;;;1.70;99.90;;;;;;5050966;28;20040;-65
2023/03/03 02:49:25;;;;;;;247.75;30.08;;;1.70;99.90;;;;;;5051685;28;20036;-66
2023/03/03 02:51:51;;;;;;;252.75;26.25;;;1.70;99.90;;;;;;5052354;28;20041;-65
2023/03/03 02:54:19;;;;;;;335.80;34.88;;;1.60;99.90;;;;;;5051235;28;20126;-64
2023/03/03 02:56:45;;;;;;;175.98;23.45;;;1.60;99.90;;;;;;5051748;28;20041;-64
2023/03/03 02:59:11;;;;;;;166.00;20.48;;;1.60;99.90;;;;;;5050805;28;20444;-64
2023/03/03 03:01:38;;;;;;;138.20;16.67;;;1.60;99.90;;;;;;5050778;28;20087;-64
2023/03/03 03:04:07;;;;;;;148.93;21.95;;;1.50;99.90;;;;;;5050089;28;20098;-64
2023/03/03 03:06:33;;;;;;;150.07;21.63;;;1.50;99.90;;;;;;5050732;28;20136;-64
2023/03/03 03:08:59;;;;;;;188.18;25.50;;;1.50;99.90;;;;;;5049892;28;20123;-64
2023/03/03 03:11:25;;;;;;;200.20;23.60;;;1.50;99.90;;;;;;5052056;28;20048;-64
2023/03/03 03:13:51;;;;;;;204.60;26.65;;;1.40;99.90;;;;;;5051879;28;20045;-64
2023/03/03 03:16:18;;;;;;;309.05;33.15;;;1.40;99.90;;;;;;5050434;28;20145;-64
2023/03/03 03:18:44;;;;;;;192.43;20.20;;;1.40;99.90;;;;;;5050131;28;20053;-64
2023/03/03 03:21:12;;;;;;;260.33;32.40;;;1.40;99.90;;;;;;5051423;28;20040;-64
2023/03/03 03:23:39;;;;;;;236.32;27.63;;;1.30;99.90;;;;;;5050212;28;20166;-64
2023/03/03 03:26:06;;;;;;;183.93;25.00;;;1.30;99.90;;;;;;5050698;28;20087;-64
2023/03/03 03:28:32;;;;;;;302.33;36.95;;;1.30;99.90;;;;;;5050386;28;20126;-64
2023/03/03 03:30:59;;;;;;;172.63;23.65;;;1.30;99.90;;;;;;5049775;28;20045;-64
2023/03/03 03:33:27;;;;;;;125.22;20.85;;;1.20;99.90;;;;;;5051737;28;20346;-64
2023/03/03 03:35:54;;;;;;;221.27;26.13;;;1.20;99.90;;;;;;5051709;28;20060;-64
2023/03/03 03:38:21;;;;;;;110.88;17.63;;;1.20;99.90;;;;;;5049305;28;20114;-64
2023/03/03 03:40:47;;;;;;;208.52;27.30;;;1.20;99.90;;;;;;5050074;28;20128;-64
2023/03/03 03:43:13;;;;;;;158.52;20.00;;;1.20;99.90;;;;;;5051376;28;20052;-64
2023/03/03 03:45:42;;;;;;;132.75;19.27;;;1.10;99.90;;;;;;5049666;28;20041;-64
2023/03/03 03:48:07;;;;;;;169.20;24.33;;;1.00;99.90;;;;;;5049970;28;20048;-64
2023/03/03 03:50:33;;;;;;;119.70;15.48;;;1.00;99.90;;;;;;5033266;28;20543;-64
2023/03/03 03:52:59;;;;;;;111.15;15.52;;;0.90;99.90;;;;;;5050413;28;20041;-64
2023/03/03 03:55:25;;;;;;;239.35;30.55;;;0.80;99.90;;;;;;5050863;28;20107;-64
2023/03/03 03:57:50;;;;;;;169.40;23.55;;;0.70;99.90;;;;;;5032749;28;20045;-64
2023/03/03 04:00:16;;;;;;;205.07;24.08;;;0.70;99.90;;;;;;5051122;28;20040;-64
2023/03/03 04:02:42;;;;;;;80.25;10.73;;;0.60;99.90;;;;;;5049870;28;20049;-64
2023/03/03 04:05:09;;;;;;;252.95;29.10;;;0.50;99.90;;;;;;5049315;28;20041;-64
2023/03/03 04:07:35;;;;;;;153.48;20.70;;;0.40;99.90;;;;;;5033068;28;20045;-64
2023/03/03 04:10:01;;;;;;;120.00;17.75;;;0.40;99.90;;;;;;5050921;28;20048;-64
2023/03/03 04:12:27;;;;;;;143.68;21.30;;;0.30;99.90;;;;;;5049067;28;20401;-64
2023/03/03 04:14:53;;;;;;;118.90;16.77;;;0.20;99.90;;;;;;5049676;28;20037;-64
2023/03/03 04:17:21;;;;;;;159.75;23.30;;;0.10;99.90;;;;;;5049750;28;20068;-64
2023/03/03 04:19:47;;;;;;;180.05;19.35;;;0.10;99.90;;;;;;5048903;28;20045;-64
2023/03/03 04:22:13;;;;;;;181.57;22.73;;;0.00;99.90;;;;;;5048869;28;20460;-64
2023/03/03 04:24:39;;;;;;;205.20;23.20;;;0.00;99.90;;;;;;5032887;28;20409;-64
2023/03/03 04:27:07;;;;;;;127.63;18.33;;;0.00;99.90;;;;;;5031705;28;20098;-64
2023/03/03 04:29:34;;;;;;;138.77;18.75;;;-0.10;99.90;;;;;;5049010;28;20102;-65
2023/03/03 04:32:00;;;;;;;384.05;37.75;;;-0.10;99.90;;;;;;5049190;28;20041;-64
2023/03/03 04:34:25;;;;;;;179.05;23.17;;;-0.10;99.90;;;;;;5048619;28;20048;-64
2023/03/03 04:36:51;;;;;;;90.95;14.02;;;-0.10;99.90;;;;;;5049065;28;20041;-64
2023/03/03 04:39:17;;;;;;;64.38;12.43;;;-0.20;99.90;;;;;;5050445;28;20041;-64
2023/03/03 04:41:43;;;;;;;141.05;20.67;;;-0.20;99.90;;;;;;5048515;28;20045;-64
2023/03/03 04:44:09;;;;;;;52.92;9.82;;;-0.20;99.90;;;;;;5050292;28;20036;-64
2023/03/03 04:46:34;;;;;;;166.57;20.65;;;-0.20;99.90;;;;;;5049036;28;20041;-64
2023/03/03 04:49:00;;;;;;;126.18;19.10;;;-0.20;99.90;;;;;;5049379;28;20080;-64
2023/03/03 04:51:26;;;;;;;186.88;24.25;;;-0.20;99.90;;;;;;5048652;28;20041;-64
2023/03/03 04:53:52;;;;;;;87.47;16.25;;;-0.20;99.90;;;;;;5048616;28;20037;-64
2023/03/03 04:56:17;;;;;;;150.93;22.02;;;-0.30;99.90;;;;;;5049155;28;20489;-64
2023/03/03 04:58:43;;;;;;;189.00;25.92;;;-0.30;99.90;;;;;;5048883;28;20459;-64
2023/03/03 05:01:13;;;;;;;101.00;16.90;;;-0.40;99.90;;;;;;5048258;28;20048;-64
2023/03/03 05:03:39;;;;;;;109.43;17.15;;;-0.40;99.90;;;;;;5050151;28;20130;-64
2023/03/03 05:06:06;;;;;;;114.07;17.75;;;-0.40;99.90;;;;;;5050185;28;20036;-64
2023/03/03 05:08:31;;;;;;;108.45;18.10;;;-0.50;99.90;;;;;;5048044;28;20045;-64
2023/03/03 05:10:58;;;;;;;98.03;15.95;;;-0.50;99.90;;;;;;5049986;28;20029;-64
2023/03/03 05:13:26;;;;;;;103.60;14.95;;;-0.60;99.90;;;;;;5048704;28;20037;-64
2023/03/03 05:15:56;;;;;;;167.60;21.73;;;-0.60;99.90;;;;;;5031381;28;20075;-64
2023/03/03 05:18:23;;;;;;;82.60;12.35;;;-0.60;99.90;;;;;;5048650;28;20045;-64
2023/03/03 05:20:51;;;;;;;90.13;13.13;;;-0.60;99.90;;;;;;5048583;28;20128;-64
2023/03/03 05:23:17;;;;;;;133.07;20.42;;;-0.60;99.90;;;;;;5049524;28;20053;-64
2023/03/03 05:25:45;;;;;;;87.78;12.18;;;-0.60;99.90;;;;;;5049944;28;20253;-64
2023/03/03 05:28:11;;;;;;;147.32;20.27;;;-0.60;99.90;;;;;;5031958;28;20099;-64
2023/03/03 05:30:37;;;;;;;111.30;17.58;;;-0.70;99.90;;;;;;5049391;28;20044;-64
2023/03/03 05:33:04;;;;;;;97.13;17.73;;;-0.70;99.90;;;;;;5049970;28;20116;-64
2023/03/03 05:35:30;;;;;;;79.22;16.48;;;-0.70;99.90;;;;;;5049875;28;20033;-64
2023/03/03 05:37:57;;;;;;;40.17;10.73;;;-0.70;99.90;;;;;;5049207;28;20559;-64
2023/03/03 05:40:24;;;;;;;62.38;14.85;;;-0.80;99.90;;;;;;5053018;28;20497;-64
2023/03/03 05:42:50;;;;;;;45.92;12.05;;;-0.80;99.90;;;;;;5051858;28;20045;-64
2023/03/03 05:45:19;;;;;;;46.10;11.57;;;-0.80;99.90;;;;;;5052091;28;20051;-64
2023/03/03 05:47:46;;;;;;;36.50;9.35;;;-0.80;99.90;;;;;;5053201;28;20375;-64
2023/03/03 05:50:11;;;;;;;50.53;12.50;;;-0.90;99.90;;;;;;5051835;28;20132;-64
2023/03/03 05:52:37;;;;;;;70.60;14.73;;;-0.90;99.90;;;;;;5052466;28;20120;-64
2023/03/03 05:55:04;;;;;;;39.17;11.20;;;-0.90;99.90;;;;;;5052060;28;20037;-64
2023/03/03 05:57:30;;;;;;;16.35;7.97;;;-1.00;99.90;;;;;;5051535;28;20057;-64
2023/03/03 05:59:56;;;;;;;14.48;7.57;;;-1.00;99.90;;;;;;5052073;28;20045;-65
2023/03/03 06:02:21;;;;;;;11.43;7.28;;;-1.00;99.90;;;;;;5052274;28;20040;-64
2023/03/03 06:04:47;;;;;;;10.90;6.28;;;-1.10;99.90;;;;;;5051573;28;20485;-64
2023/03/03 06:07:13;;;;;;;11.52;7.18;;;-1.10;99.90;;;;;;5051659;28;20395;-64
2023/03/03 06:09:39;;;;;;;11.68;7.25;;;-1.10;99.90;;;;;;5051900;28;20080;-64
2023/03/03 06:12:05;;;;;;;9.38;6.80;;;-1.20;99.90;;;;;;5051340;28;20048;-64
2023/03/03 06:14:31;;;;;;;9.43;6.55;;;-1.20;99.90;;;;;;5051766;28;20047;-63
2023/03/03 06:16:56;;;;;;;9.48;6.53;;;-1.30;99.90;;;;;;5052735;28;20048;-64
2023/03/03 06:19:23;;;;;;;9.73;6.85;;;-1.30;99.90;;;;;;5052330;28;20037;-63
2023/03/03 06:21:49;;;;;;;12.52;7.38;;;-1.30;99.90;;;;;;5052799;28;20059;-63
2023/03/03 06:24:15;;;;;;;10.65;6.80;;;-1.30;99.90;;;;;;5052901;28;20049;-64
2023/03/03 06:26:41;;;;;;;10.77;7.10;;;-1.30;99.90;;;;;;5052277;28;20044;-64
2023/03/03 06:29:06;;;;;;;11.20;6.88;;;-1.20;99.90;;;;;;5051426;28;20515;-64
2023/03/03 06:31:32;;;;;;;11.85;7.07;;;-1.30;99.90;;;;;;5052911;28;20116;-64
2023/03/03 06:33:58;;;;;;;11.80;6.85;;;-1.30;99.90;;;;;;5052112;28;20375;-64
2023/03/03 06:36:24;;;;;;;12.43;8.27;;;-1.30;99.90;;;;;;5051278;28;20134;-64
2023/03/03 06:38:50;;;;;;;12.82;7.88;;;-1.30;99.90;;;;;;5052054;28;20076;-63
2023/03/03 06:41:16;;;;;;;18.55;8.88;;;-1.30;99.90;;;;;;5051498;28;20033;-64
2023/03/03 06:43:42;;;;;;;12.82;8.88;;;-1.30;99.90;;;;;;5052271;28;20052;-63
2023/03/03 06:46:08;;;;;;;18.45;9.88;;;-1.30;99.90;;;;;;5050670;28;20049;-63
2023/03/03 06:48:34;;;;;;;34.30;12.63;;;-1.30;99.90;;;;;;5050937;28;20045;-63
2023/03/03 06:51:01;;;;;;;33.83;13.77;;;-1.30;99.90;;;;;;5050161;28;20041;-63
2023/03/03 06:53:27;;;;;;;92.30;19.45;;;-1.20;99.90;;;;;;5050507;28;20045;-63
2023/03/03 06:55:57;;;;;;;86.93;16.75;;;-1.20;99.90;;;;;;5052533;28;20091;-63
2023/03/03 06:58:23;;;;;;;85.75;17.20;;;-1.10;99.90;;;;;;5050905;28;20127;-63
2023/03/03 07:00:59;;;;;;;87.50;16.52;;;-1.10;99.90;;;;;;5051648;28;20120;-63
2023/03/03 07:03:34;;;;;;;51.63;14.60;;;-1.10;99.90;;;;;;5050797;28;20055;-63
2023/03/03 07:06:01;;;;;;;60.50;15.20;;;-1.00;99.90;;;;;;5052235;28;20128;-63
2023/03/03 07:08:30;;;;;;;71.28;16.20;;;-1.00;99.90;;;;;;5051380;28;20500;-63
2023/03/03 07:11:05;;;;;;;66.82;13.15;;;-0.90;99.90;;;;;;5050758;28;20049;-63
2023/03/03 07:13:32;;;;;;;148.02;22.98;;;-0.80;99.90;;;;;;5051774;28;20068;-63
2023/03/03 07:16:02;;;;;;;173.35;24.50;;;-0.80;99.90;;;;;;5050969;28;20049;-63
2023/03/03 07:18:54;;;;;;;45.88;10.77;;;-0.70;99.90;;;;;;5050788;28;20101;-63
2023/03/03 07:21:33;;;;;;;91.20;15.27;;;-0.70;99.90;;;;;;5051258;28;20053;-63
2023/03/03 07:24:07;;;;;;;103.22;14.68;;;-0.70;99.90;;;;;;5050717;28;20044;-63
2023/03/03 07:26:33;;;;;;;113.60;16.52;;;-0.60;99.90;;;;;;5050331;28;20049;-63
2023/03/03 07:29:20;;;;;;;101.47;14.02;;;-0.50;99.90;;;;;;5049686;28;20049;-64
2023/03/03 07:31:47;;;;;;;83.53;12.98;;;-0.40;99.90;;;;;;5051727;28;20044;-63
2023/03/03 07:34:38;;;;;;;52.35;10.70;;;-0.40;99.90;;;;;;5050479;28;20041;-63
2023/03/03 07:37:37;;;;;;;49.72;8.35;;;-0.30;99.90;;;;;;5049597;28;20064;-63
2023/03/03 07:40:34;;;;;;;54.30;12.40;;;-0.20;99.90;;;;;;5051197;28;20086;-63
2023/03/03 07:43:01;;;;;;;37.45;10.55;;;-0.10;99.90;;;;;;5049250;28;20051;-63
2023/03/03 07:45:31;;;;;;;17.05;7.90;;;0.00;99.90;;;;;;5050093;28;20432;-63
2023/03/03 07:48:08;;;;;;;26.52;9.45;;;0.10;99.90;;;;;;5050092;28;20052;-63
2023/03/03 07:50:34;;;;;;;11.52;7.30;;;0.20;99.90;;;;;;5050735;28;20045;-63
2023/03/03 07:53:00;;;;;;;11.88;7.07;;;0.20;99.90;;;;;;5050207;28;20041;-64
2023/03/03 07:55:38;;;;;;;10.05;6.22;;;0.30;99.90;;;;;;5051308;28;20041;-64
2023/03/03 07:58:11;;;;;;;13.25;7.43;;;0.40;99.90;;;;;;5049412;28;20045;-64
2023/03/03 08:01:08;;;;;;;11.63;7.72;;;0.50;99.90;;;;;;5049710;28;20102;-64
2023/03/03 08:03:34;;;;;;;10.95;7.03;;;0.60;99.90;;;;;;5049104;28;20248;-64
2023/03/03 08:06:29;;;;;;;8.27;5.70;;;0.70;99.90;;;;;;5049867;28;20040;-64
2023/03/03 08:09:08;;;;;;;8.20;6.00;;;0.80;99.90;;;;;;5042161;28;20049;-65
2023/03/03 08:11:52;;;;;;;10.70;6.90;;;0.90;99.90;;;;;;5049087;28;20090;-64
2023/03/03 08:14:26;;;;;;;9.10;6.45;;;1.10;99.90;;;;;;5049720;28;20897;-64
2023/03/03 08:16:52;;;;;;;11.82;8.02;;;1.20;99.90;;;;;;5050632;28;20087;-64
2023/03/03 08:19:18;;;;;;;11.85;7.20;;;1.40;99.90;;;;;;5049501;28;20513;-65
2023/03/03 08:21:44;;;;;;;12.25;8.98;;;1.60;99.90;;;;;;5049206;28;20144;-65
2023/03/03 08:24:09;;;;;;;8.95;6.35;;;1.90;99.90;;;;;;5048782;28;20057;-65
2023/03/03 08:26:36;;;;;;;9.18;6.65;;;2.50;99.90;;;;;;5049614;28;20044;-64
2023/03/03 08:29:01;;;;;;;7.70;5.57;;;3.10;99.90;;;;;;5049164;28;20045;-64
2023/03/03 08:31:28;;;;;;;8.15;5.97;;;3.80;99.90;;;;;;5050076;28;20504;-64
2023/03/03 08:33:53;;;;;;;9.20;6.20;;;4.10;99.90;;;;;;5032625;28;20056;-64
2023/03/03 08:36:20;;;;;;;9.40;5.25;;;4.40;99.90;;;;;;5049106;28;20037;-64
2023/03/03 08:38:46;;;;;;;7.43;5.78;;;4.80;99.90;;;;;;5048370;28;20170;-64
2023/03/03 08:41:12;;;;;;;8.18;5.07;;;5.50;99.90;;;;;;5047700;28;20120;-64
2023/03/03 08:43:38;;;;;;;7.97;5.75;;;6.00;99.90;;;;;;5048772;28;20045;-64
2023/03/03 08:46:05;;;;;;;10.82;7.00;;;6.60;99.90;;;;;;5048696;28;20072;-64
2023/03/03 08:48:32;;;;;;;10.20;6.18;;;7.20;99.90;;;;;;5048875;28;20052;-64
2023/03/03 08:50:58;;;;;;;8.70;6.80;;;7.80;99.90;;;;;;5032374;28;20041;-65
2023/03/03 08:53:26;;;;;;;6.88;5.10;;;8.40;99.90;;;;;;5049790;28;20040;-65
2023/03/03 08:55:52;;;;;;;6.38;4.75;;;9.00;99.90;;;;;;5050152;28;20057;-65
2023/03/03 08:58:19;;;;;;;7.35;4.38;;;9.50;99.90;;;;;;5049972;28;20061;-65
2023/03/03 09:00:45;;;;;;;5.15;4.35;;;9.90;99.90;;;;;;5049595;28;20052;-65
2023/03/03 09:03:11;;;;;;;6.30;4.97;;;10.40;99.90;;;;;;5050269;28;20036;-65
2023/03/03 09:05:38;;;;;;;8.55;5.55;;;11.00;99.90;;;;;;5050065;28;20355;-65
2023/03/03 09:08:05;;;;;;;7.63;5.43;;;11.60;99.90;;;;;;5047814;28;20045;-65
2023/03/03 09:10:31;;;;;;;6.72;4.60;;;11.80;99.90;;;;;;5048617;28;20123;-65
2023/03/03 09:13:01;;;;;;;7.63;4.65;;;12.00;99.90;;;;;;5048662;28;20071;-65
2023/03/03 09:15:33;;;;;;;6.72;4.53;;;12.50;99.90;;;;;;5052434;28;20045;-65
2023/03/03 09:18:17;;;;;;;4.50;3.95;;;12.90;99.90;;;;;;5052799;28;20122;-66
2023/03/03 09:20:53;;;;;;;7.20;4.25;;;13.30;99.90;;;;;;5052414;28;20080;-65
2023/03/03 09:23:37;;;;;;;6.13;4.15;;;13.50;99.90;;;;;;5053904;28;20432;-65
2023/03/03 09:26:41;;;;;;;5.10;3.97;;;13.60;99.90;;;;;;5052906;28;20512;-65
2023/03/03 09:29:28;;;;;;;6.15;3.47;;;13.90;99.90;;;;;;5050775;28;20052;-65
2023/03/03 09:32:00;;;;;;;6.35;3.85;;;13.70;99.90;;;;;;5051692;28;20044;-66
2023/03/03 09:34:26;;;;;;;5.30;3.58;;;13.30;99.90;;;;;;5050816;28;20098;-65
2023/03/03 09:36:54;;;;;;;4.43;3.55;;;12.90;99.90;;;;;;5051235;28;20044;-65
2023/03/03 09:39:25;;;;;;;5.68;3.83;;;12.50;99.90;;;;;;5051329;28;20063;-65
2023/03/03 09:42:13;;;;;;;4.85;3.80;;;12.50;99.90;;;;;;5050542;28;20129;-65
2023/03/03 09:44:50;;;;;;;5.00;3.03;;;12.70;99.90;;;;;;5051133;28;20060;-65
2023/03/03 09:47:44;;;;;;;4.60;3.17;;;12.90;99.90;;;;;;5052389;28;20045;-65
2023/03/03 09:50:39;;;;;;;4.60;3.30;;;13.30;99.90;;;;;;5052254;28;20036;-65
2023/03/03 09:53:27;;;;;;;4.95;3.70;;;13.40;99.90;;;;;;5048893;28;20047;-65
2023/03/03 09:56:15;;;;;;;6.15;3.88;;;12.80;99.90;;;;;;5048736;28;20045;-65
2023/03/03 09:59:00;;;;;;;5.18;3.47;;;12.60;99.90;;;;;;5050751;28;20045;-65
2023/03/03 10:01:49;;;;;;;5.20;3.72;;;13.00;99.90;;;;;;5051727;28;20610;-65
2023/03/03 10:04:52;;;;;;;6.80;3.20;;;13.10;99.90;;;;;;5052186;28;20044;-65
2023/03/03 10:08:01;;;;;;;5.85;3.40;;;13.30;99.90;;;;;;5050782;28;20048;-65
2023/03/03 10:10:45;;;;;;;4.53;3.57;;;14.20;99.90;;;;;;5031359;28;20239;-65
2023/03/03 10:13:29;;;;;;;6.80;2.85;;;15.10;99.90;;;;;;5050239;28;20433;-65
2023/03/03 10:16:40;;;;;;;5.60;3.22;;;15.60;99.90;;;;;;5048753;28;20045;-65
2023/03/03 10:19:27;;;;;;;7.72;3.67;;;15.90;99.90;;;;;;5049571;28;20051;-65
2023/03/03 10:21:59;;;;;;;7.22;3.33;;;16.30;99.90;;;;;;5051136;28;20049;-65
2023/03/03 10:24:30;;;;;;;4.45;2.25;;;16.70;99.90;;;;;;5050406;28;20055;-65
2023/03/03 10:26:56;;;;;;;5.50;3.13;;;17.10;99.90;;;;;;5054778;28;20123;-65
2023/03/03 10:29:37;;;;;;;4.68;2.35;;;17.20;99.90;;;;;;5051650;28;20120;-65
2023/03/03 10:32:15;;;;;;;4.57;2.35;;;17.50;99.90;;;;;;5060742;28;20059;-65
2023/03/03 10:35:00;;;;;;;5.50;2.17;;;17.70;99.90;;;;;;5049412;28;20071;-65
2023/03/03 10:37:56;;;;;;;4.80;2.75;;;17.50;99.90;;;;;;5050354;28;20047;-64
2023/03/03 10:40:42;;;;;;;4.18;1.90;;;16.70;99.90;;;;;;5050873;28;20094;-64
2023/03/03 10:43:23;;;;;;;5.10;2.30;;;15.20;99.90;;;;;;5052486;28;20036;-64
2023/03/03 10:46:09;;;;;;;3.97;2.17;;;13.90;99.90;;;;;;5050528;28;20128;-64
2023/03/03 10:48:54;;;;;;;4.70;1.77;;;13.00;99.90;;;;;;5051841;28;20049;-64
2023/03/03 10:51:44;;;;;;;3.22;1.30;;;12.10;99.90;;;;;;5051756;28;20048;-64
2023/03/03 10:54:19;;;;;;;3.92;1.17;;;11.30;99.90;;;;;;5052258;28;20721;-64
2023/03/03 10:56:58;;;;;;;1.88;0.63;;;10.60;99.90;;;;;;5050967;28;20041;-64
2023/03/03 10:59:27;;;;;;;2.47;0.73;;;10.10;99.90;;;;;;5051510;28;20068;-64
2023/03/03 11:02:00;;;;;;;4.63;0.88;;;9.80;99.90;;;;;;5051824;28;20048;-64
2023/03/03 11:05:02;;;;;;;3.50;1.00;;;9.50;99.90;;;;;;5050979;28;20059;-63
2023/03/03 11:07:40;;;;;;;4.25;0.80;;;9.30;99.90;;;;;;5050401;28;20079;-63
2023/03/03 11:10:37;;;;;;;3.80;1.33;;;9.20;99.90;;;;;;5050709;28;20056;-63
2023/03/03 11:13:45;;;;;;;4.85;1.75;;;9.10;99.90;;;;;;5049244;28;20094;-63
2023/03/03 11:16:49;;;;;;;5.25;0.98;;;9.10;99.90;;;;;;5050767;28;20071;-63
2023/03/03 11:19:24;;;;;;;3.03;1.00;;;9.00;99.90;;;;;;5049019;28;20056;-63
2023/03/03 11:21:59;;;;;;;2.78;1.00;;;9.00;99.90;;;;;;5051182;28;20524;-64
2023/03/03 11:24:37;;;;;;;2.25;0.82;;;9.10;99.90;;;;;;5051576;28;20099;-64
2023/03/03 11:27:31;;;;;;;6.07;0.90;;;9.10;99.90;;;;;;5050702;28;20044;-63
2023/03/03 11:30:15;;;;;;;4.57;2.05;;;9.10;99.90;;;;;;5049562;28;20092;-63
2023/03/03 11:33:09;;;;;;;3.78;0.90;;;9.70;99.90;;;;;;5050122;28;20045;-63
2023/03/03 11:36:04;;;;;;;3.88;0.80;;;10.10;99.90;;;;;;5049286;28;20302;-63
2023/03/03 11:38:38;;;;;;;3.95;0.90;;;10.00;99.90;;;;;;5050100;28;20040;-63
2023/03/03 11:41:30;;;;;;;4.22;0.98;;;9.90;99.90;;;;;;5047562;28;20338;-63
2023/03/03 11:44:14;;;;;;;2.55;0.90;;;9.80;99.90;;;;;;5037863;28;20057;-64
2023/03/03 11:47:02;;;;;;;4.47;0.80;;;9.70;99.90;;;;;;5050187;28;20044;-64
2023/03/03 11:49:34;;;;;;;3.47;0.85;;;9.80;99.90;;;;;;5048521;28;20053;-64
2023/03/03 11:52:00;;;;;;;5.50;0.70;;;9.80;99.90;;;;;;5050161;28;20033;-64
2023/03/03 11:55:13;;;;;;;2.22;0.73;;;9.80;99.90;;;;;;5048265;28;20102;-63
2023/03/03 11:57:59;;;;;;;4.80;0.88;;;10.30;99.90;;;;;;5036236;28;20064;-63
2023/03/03 12:00:30;;;;;;;2.60;0.70;;;10.50;99.90;;;;;;5050007;28;20087;-64
2023/03/03 12:03:17;;;;;;;3.05;0.80;;;10.50;99.90;;;;;;5049423;28;20072;-63
2023/03/03 12:05:56;;;;;;;3.70;0.80;;;10.30;99.90;;;;;;5048607;28;20063;-63
2023/03/03 12:09:05;;;;;;;2.13;0.90;;;10.30;99.90;;;;;;5047782;28;20429;-64
2023/03/03 12:11:54;;;;;;;2.07;0.90;;;11.00;99.90;;;;;;5049534;28;20037;-64
2023/03/03 12:14:46;;;;;;;4.10;1.00;;;11.00;99.90;;;;;;5037679;28;20056;-63
2023/03/03 12:17:48;;;;;;;5.07;1.50;;;10.70;99.90;;;;;;5049580;28;20036;-64
2023/03/03 12:20:45;;;;;;;4.50;1.02;;;10.60;99.90;;;;;;5048177;28;20041;-64
2023/03/03 12:23:19;;;;;;;4.18;0.80;;;10.70;99.90;;;;;;5047561;28;20080;-64
2023/03/03 12:25:48;;;;;;;3.47;1.15;;;11.20;99.90;;;;;;5049646;28;20108;-64
2023/03/03 12:28:22;;;;;;;4.60;0.90;;;11.50;99.90;;;;;;5049322;28;20516;-64
2023/03/03 12:31:00;;;;;;;6.05;1.70;;;11.80;99.90;;;;;;5047550;28;20493;-64
2023/03/03 12:33:41;;;;;;;5.10;1.40;;;11.80;99.90;;;;;;5048403;28;20041;-64
2023/03/03 12:36:27;;;;;;;4.10;1.00;;;11.50;99.90;;;;;;5048533;28;20094;-64
2023/03/03 12:39:31;;;;;;;2.53;0.82;;;11.10;99.90;;;;;;5049239;28;20456;-64
2023/03/03 12:42:20;;;;;;;4.68;0.80;;;10.60;99.90;;;;;;5010182;28;20091;-64
2023/03/03 12:45:20;;;;;;;3.23;0.80;;;10.30;99.90;;;;;;5009532;28;20080;-64
2023/03/03 12:47:53;;;;;;;4.57;0.70;;;10.60;99.90;;;;;;5026218;28;20335;-64
2023/03/03 12:50:21;;;;;;;2.55;0.73;;;10.90;99.90;;;;;;5009227;28;20280;-64
2023/03/03 12:53:15;;;;;;;5.35;1.23;;;11.20;99.90;;;;;;5010271;28;20497;-64
2023/03/03 12:56:25;;;;;;;4.07;0.85;;;11.60;99.90;;;;;;5026651;28;20520;-64
2023/03/03 12:59:03;;;;;;;3.55;0.93;;;12.20;99.90;;;;;;4949158;29;20047;-64
2023/03/03 13:01:59;;;;;;;2.78;0.73;;;12.40;99.90;;;;;;4949687;29;20065;-64
2023/03/03 13:04:52;;;;;;;3.45;0.80;;;12.00;99.90;;;;;;4948238;29;20626;-64
2023/03/03 13:07:30;;;;;;;4.32;0.88;;;11.50;99.90;;;;;;4949250;29;20055;-64